sensor_id;sensor_type;location;lat;lon;timestamp;pressure;altitude;pressure_sealevel;temperature;humidity
84617;BME280;74846;51.126;16.944;2024-03-22T00:00:26;100721.21;;;11.01;68.22
84617;BME280;74846;51.126;16.944;2024-03-22T00:03:14;100720.56;;;11.07;68.39
84617;BME280;74846;51.126;16.944;2024-03-22T00:05:42;100722.91;;;11.03;68.98
84617;BME280;74846;51.126;16.944;2024-03-22T00:08:10;100724.37;;;10.95;69.18
84617;BME280;74846;51.126;16.944;2024-03-22T00:10:38;100725.39;;;10.92;69.05
84617;BME280;74846;51.126;16.944;2024-03-22T00:13:06;100721.55;;;10.95;68.01
84617;BME280;74846;51.126;16.944;2024-03-22T00:15:33;100726.92;;;10.83;67.82
84617;BME280;74846;51.126;16.944;2024-03-22T00:18:01;100721.82;;;10.83;67.58
84617;BME280;74846;51.126;16.944;2024-03-22T00:20:29;100721.20;;;10.82;67.45
84617;BME280;74846;51.126;16.944;2024-03-22T00:23:00;100719.01;;;10.76;67.74
84617;BME280;74846;51.126;16.944;2024-03-22T00:25:28;100722.04;;;10.75;67.71
84617;BME280;74846;51.126;16.944;2024-03-22T00:27:56;100721.10;;;10.73;67.62
84617;BME280;74846;51.126;16.944;2024-03-22T00:30:24;100720.45;;;10.72;67.57
84617;BME280;74846;51.126;16.944;2024-03-22T00:32:52;100724.41;;;10.70;67.00
84617;BME280;74846;51.126;16.944;2024-03-22T00:35:20;100725.09;;;10.63;66.61
84617;BME280;74846;51.126;16.944;2024-03-22T00:37:48;100729.76;;;10.58;66.33
84617;BME280;74846;51.126;16.944;2024-03-22T00:40:16;100731.02;;;10.58;65.95
84617;BME280;74846;51.126;16.944;2024-03-22T00:42:45;100727.54;;;10.54;65.97
84617;BME280;74846;51.126;16.944;2024-03-22T00:45:13;100731.10;;;10.49;66.14
84617;BME280;74846;51.126;16.944;2024-03-22T00:47:41;100721.73;;;10.47;65.50
84617;BME280;74846;51.126;16.944;2024-03-22T00:50:09;100728.77;;;10.43;65.47
84617;BME280;74846;51.126;16.944;2024-03-22T00:52:37;100723.02;;;10.42;65.13
84617;BME280;74846;51.126;16.944;2024-03-22T00:55:05;100717.69;;;10.43;64.74
84617;BME280;74846;51.126;16.944;2024-03-22T00:57:33;100718.51;;;10.34;64.87
84617;BME280;74846;51.126;16.944;2024-03-22T01:00:01;100714.98;;;10.30;65.20
84617;BME280;74846;51.126;16.944;2024-03-22T01:02:30;100715.47;;;10.28;65.57
84617;BME280;74846;51.126;16.944;2024-03-22T01:04:58;100716.56;;;10.24;65.33
84617;BME280;74846;51.126;16.944;2024-03-22T01:07:26;100717.84;;;10.22;65.09
84617;BME280;74846;51.126;16.944;2024-03-22T01:09:54;100715.36;;;10.19;64.93
84617;BME280;74846;51.126;16.944;2024-03-22T01:12:22;100712.39;;;10.19;64.81
84617;BME280;74846;51.126;16.944;2024-03-22T01:14:50;100716.14;;;10.10;65.14
84617;BME280;74846;51.126;16.944;2024-03-22T01:17:18;100714.93;;;10.10;64.88
84617;BME280;74846;51.126;16.944;2024-03-22T01:19:45;100708.30;;;10.05;65.17
84617;BME280;74846;51.126;16.944;2024-03-22T01:22:13;100706.19;;;10.02;65.45
84617;BME280;74846;51.126;16.944;2024-03-22T01:24:41;100706.42;;;10.00;65.37
84617;BME280;74846;51.126;16.944;2024-03-22T01:27:09;100705.73;;;9.89;65.32
84617;BME280;74846;51.126;16.944;2024-03-22T01:29:37;100706.27;;;9.81;65.27
84617;BME280;74846;51.126;16.944;2024-03-22T01:32:05;100703.05;;;9.79;65.32
84617;BME280;74846;51.126;16.944;2024-03-22T01:34:33;100701.52;;;9.70;65.64
84617;BME280;74846;51.126;16.944;2024-03-22T01:37:02;100696.73;;;9.71;65.87
84617;BME280;74846;51.126;16.944;2024-03-22T01:39:30;100697.52;;;9.62;66.16
84617;BME280;74846;51.126;16.944;2024-03-22T01:41:58;100690.48;;;9.59;66.30
84617;BME280;74846;51.126;16.944;2024-03-22T01:44:29;100687.97;;;9.60;66.48
84617;BME280;74846;51.126;16.944;2024-03-22T01:46:56;100690.26;;;9.56;66.54
84617;BME280;74846;51.126;16.944;2024-03-22T01:49:24;100687.53;;;9.55;66.94
84617;BME280;74846;51.126;16.944;2024-03-22T01:51:52;100688.84;;;9.50;66.80
84617;BME280;74846;51.126;16.944;2024-03-22T01:54:21;100685.63;;;9.43;67.12
84617;BME280;74846;51.126;16.944;2024-03-22T01:56:49;100684.66;;;9.45;67.44
84617;BME280;74846;51.126;16.944;2024-03-22T01:59:17;100681.04;;;9.47;67.96
84617;BME280;74846;51.126;16.944;2024-03-22T02:01:45;100681.64;;;9.38;68.24
84617;BME280;74846;51.126;16.944;2024-03-22T02:04:13;100680.65;;;9.37;68.54
84617;BME280;74846;51.126;16.944;2024-03-22T02:06:42;100684.93;;;9.35;68.91
84617;BME280;74846;51.126;16.944;2024-03-22T02:09:09;100684.57;;;9.39;68.64
84617;BME280;74846;51.126;16.944;2024-03-22T02:11:39;100682.47;;;9.39;68.94
84617;BME280;74846;51.126;16.944;2024-03-22T02:14:07;100680.88;;;9.39;68.95
84617;BME280;74846;51.126;16.944;2024-03-22T02:16:34;100682.48;;;9.39;69.04
84617;BME280;74846;51.126;16.944;2024-03-22T02:19:02;100682.29;;;9.39;68.94
84617;BME280;74846;51.126;16.944;2024-03-22T02:21:30;100680.07;;;9.38;69.08
84617;BME280;74846;51.126;16.944;2024-03-22T02:23:57;100681.13;;;9.41;69.19
84617;BME280;74846;51.126;16.944;2024-03-22T02:26:25;100673.70;;;9.50;69.07
84617;BME280;74846;51.126;16.944;2024-03-22T02:28:53;100677.23;;;9.42;69.24
84617;BME280;74846;51.126;16.944;2024-03-22T02:31:20;100675.88;;;9.41;69.36
84617;BME280;74846;51.126;16.944;2024-03-22T02:33:48;100679.20;;;9.38;69.19
84617;BME280;74846;51.126;16.944;2024-03-22T02:36:16;100676.48;;;9.43;69.44
84617;BME280;74846;51.126;16.944;2024-03-22T02:38:44;100673.59;;;9.41;69.56
84617;BME280;74846;51.126;16.944;2024-03-22T02:41:11;100675.90;;;9.48;69.54
84617;BME280;74846;51.126;16.944;2024-03-22T02:43:39;100675.20;;;9.48;69.59
84617;BME280;74846;51.126;16.944;2024-03-22T02:46:07;100678.73;;;9.44;69.71
84617;BME280;74846;51.126;16.944;2024-03-22T02:48:34;100675.35;;;9.49;69.77
84617;BME280;74846;51.126;16.944;2024-03-22T02:51:02;100677.62;;;9.41;70.10
84617;BME280;74846;51.126;16.944;2024-03-22T02:53:30;100674.67;;;9.37;70.55
84617;BME280;74846;51.126;16.944;2024-03-22T02:56:00;100676.45;;;9.36;70.61
84617;BME280;74846;51.126;16.944;2024-03-22T02:58:28;100673.12;;;9.36;70.87
84617;BME280;74846;51.126;16.944;2024-03-22T03:00:56;100674.36;;;9.36;71.43
84617;BME280;74846;51.126;16.944;2024-03-22T03:03:23;100671.87;;;9.29;72.35
84617;BME280;74846;51.126;16.944;2024-03-22T03:05:51;100669.09;;;9.21;72.88
84617;BME280;74846;51.126;16.944;2024-03-22T03:08:19;100669.27;;;9.09;73.33
84617;BME280;74846;51.126;16.944;2024-03-22T03:10:47;100665.90;;;9.06;73.37
84617;BME280;74846;51.126;16.944;2024-03-22T03:13:15;100666.14;;;9.01;74.07
84617;BME280;74846;51.126;16.944;2024-03-22T03:15:42;100664.56;;;8.97;74.27
84617;BME280;74846;51.126;16.944;2024-03-22T03:18:10;100666.64;;;8.90;74.61
84617;BME280;74846;51.126;16.944;2024-03-22T03:20:37;100659.25;;;8.90;74.78
84617;BME280;74846;51.126;16.944;2024-03-22T03:23:05;100655.48;;;8.88;74.88
84617;BME280;74846;51.126;16.944;2024-03-22T03:25:33;100653.12;;;8.86;74.92
84617;BME280;74846;51.126;16.944;2024-03-22T03:28:01;100645.00;;;8.84;75.33
84617;BME280;74846;51.126;16.944;2024-03-22T03:30:28;100641.15;;;8.83;75.34
84617;BME280;74846;51.126;16.944;2024-03-22T03:32:56;100645.16;;;8.88;75.39
84617;BME280;74846;51.126;16.944;2024-03-22T03:35:24;100649.09;;;8.86;75.41
84617;BME280;74846;51.126;16.944;2024-03-22T03:37:53;100643.71;;;8.92;75.32
84617;BME280;74846;51.126;16.944;2024-03-22T03:40:20;100638.63;;;8.84;75.51
84617;BME280;74846;51.126;16.944;2024-03-22T03:42:49;100631.83;;;8.88;75.32
84617;BME280;74846;51.126;16.944;2024-03-22T03:45:17;100628.88;;;8.87;75.39
84617;BME280;74846;51.126;16.944;2024-03-22T03:47:44;100630.01;;;8.89;75.23
84617;BME280;74846;51.126;16.944;2024-03-22T03:50:12;100631.81;;;8.92;75.08
84617;BME280;74846;51.126;16.944;2024-03-22T03:52:40;100637.60;;;8.96;75.21
84617;BME280;74846;51.126;16.944;2024-03-22T03:55:07;100638.95;;;8.97;75.25
84617;BME280;74846;51.126;16.944;2024-03-22T03:57:35;100641.33;;;8.99;75.08
84617;BME280;74846;51.126;16.944;2024-03-22T04:00:03;100641.58;;;9.12;75.31
84617;BME280;74846;51.126;16.944;2024-03-22T04:02:32;100637.40;;;9.04;75.57
84617;BME280;74846;51.126;16.944;2024-03-22T04:04:59;100641.27;;;9.08;75.64
84617;BME280;74846;51.126;16.944;2024-03-22T04:07:27;100638.09;;;9.08;75.46
84617;BME280;74846;51.126;16.944;2024-03-22T04:09:56;100645.88;;;9.03;75.68
84617;BME280;74846;51.126;16.944;2024-03-22T04:12:24;100642.73;;;9.03;75.77
84617;BME280;74846;51.126;16.944;2024-03-22T04:14:51;100644.42;;;8.96;76.10
84617;BME280;74846;51.126;16.944;2024-03-22T04:17:19;100643.29;;;8.98;76.21
84617;BME280;74846;51.126;16.944;2024-03-22T04:19:49;100641.92;;;8.97;76.27
84617;BME280;74846;51.126;16.944;2024-03-22T04:22:17;100640.80;;;8.99;76.46
84617;BME280;74846;51.126;16.944;2024-03-22T04:24:44;100646.04;;;8.99;76.28
84617;BME280;74846;51.126;16.944;2024-03-22T04:27:12;100644.85;;;8.98;76.23
84617;BME280;74846;51.126;16.944;2024-03-22T04:29:40;100639.05;;;8.98;76.24
84617;BME280;74846;51.126;16.944;2024-03-22T04:32:07;100635.66;;;8.96;76.38
84617;BME280;74846;51.126;16.944;2024-03-22T04:34:35;100630.62;;;8.99;76.20
84617;BME280;74846;51.126;16.944;2024-03-22T04:37:03;100631.93;;;8.97;76.15
84617;BME280;74846;51.126;16.944;2024-03-22T04:39:31;100631.38;;;9.01;75.96
84617;BME280;74846;51.126;16.944;2024-03-22T04:41:59;100636.88;;;9.00;75.89
84617;BME280;74846;51.126;16.944;2024-03-22T04:44:27;100643.54;;;9.00;75.75
84617;BME280;74846;51.126;16.944;2024-03-22T04:46:54;100642.35;;;8.99;75.70
84617;BME280;74846;51.126;16.944;2024-03-22T04:49:22;100641.94;;;9.00;75.66
84617;BME280;74846;51.126;16.944;2024-03-22T04:51:50;100639.42;;;9.06;75.60
84617;BME280;74846;51.126;16.944;2024-03-22T04:54:18;100638.61;;;9.08;75.40
84617;BME280;74846;51.126;16.944;2024-03-22T04:56:45;100638.61;;;9.04;75.43
84617;BME280;74846;51.126;16.944;2024-03-22T04:59:13;100647.41;;;9.04;75.56
84617;BME280;74846;51.126;16.944;2024-03-22T05:01:44;100648.09;;;9.12;75.42
84617;BME280;74846;51.126;16.944;2024-03-22T05:04:12;100645.45;;;9.12;75.26
84617;BME280;74846;51.126;16.944;2024-03-22T05:06:39;100647.55;;;9.16;75.28
84617;BME280;74846;51.126;16.944;2024-03-22T05:09:07;100652.55;;;9.14;75.27
84617;BME280;74846;51.126;16.944;2024-03-22T05:11:37;100651.08;;;9.12;75.29
84617;BME280;74846;51.126;16.944;2024-03-22T05:14:05;100646.63;;;9.05;75.65
84617;BME280;74846;51.126;16.944;2024-03-22T05:16:32;100645.77;;;9.05;76.06
84617;BME280;74846;51.126;16.944;2024-03-22T05:19:00;100643.33;;;8.97;76.32
84617;BME280;74846;51.126;16.944;2024-03-22T05:21:28;100645.46;;;9.04;76.79
84617;BME280;74846;51.126;16.944;2024-03-22T05:23:55;100641.02;;;8.94;76.91
84617;BME280;74846;51.126;16.944;2024-03-22T05:26:23;100646.02;;;8.88;77.03
84617;BME280;74846;51.126;16.944;2024-03-22T05:28:51;100649.34;;;8.88;76.96
84617;BME280;74846;51.126;16.944;2024-03-22T05:31:20;100653.80;;;8.83;77.11
84617;BME280;74846;51.126;16.944;2024-03-22T05:33:47;100654.98;;;8.84;77.10
84617;BME280;74846;51.126;16.944;2024-03-22T05:36:15;100652.64;;;8.85;77.12
84617;BME280;74846;51.126;16.944;2024-03-22T05:38:43;100651.92;;;8.85;77.07
84617;BME280;74846;51.126;16.944;2024-03-22T05:41:11;100652.78;;;8.82;76.84
84617;BME280;74846;51.126;16.944;2024-03-22T05:43:38;100652.70;;;8.80;76.77
84617;BME280;74846;51.126;16.944;2024-03-22T05:46:06;100660.91;;;8.81;76.65
84617;BME280;74846;51.126;16.944;2024-03-22T05:48:34;100660.36;;;8.81;76.80
84617;BME280;74846;51.126;16.944;2024-03-22T05:51:01;100657.60;;;8.84;77.01
84617;BME280;74846;51.126;16.944;2024-03-22T05:53:29;100664.09;;;8.80;76.95
84617;BME280;74846;51.126;16.944;2024-03-22T05:55:57;100664.84;;;8.95;76.73
84617;BME280;74846;51.126;16.944;2024-03-22T05:58:24;100663.34;;;8.81;77.01
84617;BME280;74846;51.126;16.944;2024-03-22T06:00:52;100660.16;;;8.82;77.10
84617;BME280;74846;51.126;16.944;2024-03-22T06:03:21;100663.43;;;8.83;77.12
84617;BME280;74846;51.126;16.944;2024-03-22T06:05:49;100664.41;;;8.88;76.93
84617;BME280;74846;51.126;16.944;2024-03-22T06:08:17;100666.48;;;8.82;76.85
84617;BME280;74846;51.126;16.944;2024-03-22T06:10:46;100663.45;;;8.79;76.62
84617;BME280;74846;51.126;16.944;2024-03-22T06:13:14;100663.96;;;8.83;76.50
84617;BME280;74846;51.126;16.944;2024-03-22T06:15:43;100657.16;;;8.86;76.35
84617;BME280;74846;51.126;16.944;2024-03-22T06:18:14;100653.14;;;8.93;76.15
84617;BME280;74846;51.126;16.944;2024-03-22T06:20:42;100649.91;;;8.91;76.06
84617;BME280;74846;51.126;16.944;2024-03-22T06:23:10;100652.83;;;8.96;76.23
84617;BME280;74846;51.126;16.944;2024-03-22T06:25:38;100653.73;;;9.08;76.15
84617;BME280;74846;51.126;16.944;2024-03-22T06:28:06;100650.27;;;9.15;75.49
84617;BME280;74846;51.126;16.944;2024-03-22T06:30:34;100651.38;;;9.13;75.20
84617;BME280;74846;51.126;16.944;2024-03-22T06:33:02;100649.06;;;9.22;74.48
84617;BME280;74846;51.126;16.944;2024-03-22T06:35:29;100653.88;;;9.16;74.63
84617;BME280;74846;51.126;16.944;2024-03-22T06:38:00;100652.28;;;9.20;74.69
84617;BME280;74846;51.126;16.944;2024-03-22T06:40:30;100652.23;;;9.29;74.55
84617;BME280;74846;51.126;16.944;2024-03-22T06:42:58;100646.54;;;9.34;74.38
84617;BME280;74846;51.126;16.944;2024-03-22T06:45:26;100650.57;;;9.38;73.95
84617;BME280;74846;51.126;16.944;2024-03-22T06:47:53;100651.38;;;9.47;72.98
84617;BME280;74846;51.126;16.944;2024-03-22T06:50:21;100647.19;;;9.39;72.90
84617;BME280;74846;51.126;16.944;2024-03-22T06:52:55;100642.13;;;9.42;72.52
84617;BME280;74846;51.126;16.944;2024-03-22T06:55:23;100644.34;;;9.40;72.54
84617;BME280;74846;51.126;16.944;2024-03-22T06:57:50;100638.59;;;9.50;72.23
84617;BME280;74846;51.126;16.944;2024-03-22T07:00:20;100633.86;;;9.54;71.61
84617;BME280;74846;51.126;16.944;2024-03-22T07:02:47;100629.34;;;9.49;71.67
84617;BME280;74846;51.126;16.944;2024-03-22T07:05:15;100627.41;;;9.52;71.47
84617;BME280;74846;51.126;16.944;2024-03-22T07:07:43;100627.10;;;9.59;71.12
84617;BME280;74846;51.126;16.944;2024-03-22T07:10:10;100621.09;;;9.60;70.42
84617;BME280;74846;51.126;16.944;2024-03-22T07:12:38;100617.09;;;9.66;70.45
84617;BME280;74846;51.126;16.944;2024-03-22T07:15:06;100617.46;;;9.73;70.53
84617;BME280;74846;51.126;16.944;2024-03-22T07:17:34;100614.16;;;9.76;71.26
84617;BME280;74846;51.126;16.944;2024-03-22T07:20:02;100612.98;;;9.93;69.27
84617;BME280;74846;51.126;16.944;2024-03-22T07:22:31;100619.93;;;9.83;70.05
84617;BME280;74846;51.126;16.944;2024-03-22T07:24:59;100621.64;;;9.88;70.19
84617;BME280;74846;51.126;16.944;2024-03-22T07:27:27;100624.06;;;10.00;69.39
84617;BME280;74846;51.126;16.944;2024-03-22T07:29:57;100628.50;;;10.06;69.05
84617;BME280;74846;51.126;16.944;2024-03-22T07:32:25;100633.08;;;10.02;69.04
84617;BME280;74846;51.126;16.944;2024-03-22T07:34:53;100636.92;;;10.06;68.83
84617;BME280;74846;51.126;16.944;2024-03-22T07:37:21;100631.80;;;9.99;69.27
84617;BME280;74846;51.126;16.944;2024-03-22T07:39:49;100633.07;;;9.99;69.44
84617;BME280;74846;51.126;16.944;2024-03-22T07:42:16;100629.92;;;10.02;68.85
84617;BME280;74846;51.126;16.944;2024-03-22T07:44:44;100625.83;;;9.96;69.31
84617;BME280;74846;51.126;16.944;2024-03-22T07:47:12;100625.54;;;9.98;69.07
84617;BME280;74846;51.126;16.944;2024-03-22T07:49:40;100623.09;;;9.94;69.49
84617;BME280;74846;51.126;16.944;2024-03-22T07:52:08;100618.11;;;10.10;68.27
84617;BME280;74846;51.126;16.944;2024-03-22T07:54:36;100610.86;;;10.07;68.61
84617;BME280;74846;51.126;16.944;2024-03-22T07:57:04;100609.94;;;10.16;68.68
84617;BME280;74846;51.126;16.944;2024-03-22T07:59:32;100606.55;;;10.30;68.32
84617;BME280;74846;51.126;16.944;2024-03-22T08:02:00;100602.42;;;10.45;68.77
84617;BME280;74846;51.126;16.944;2024-03-22T08:04:27;100598.05;;;10.78;68.52
84617;BME280;74846;51.126;16.944;2024-03-22T08:06:57;100596.11;;;11.11;66.67
84617;BME280;74846;51.126;16.944;2024-03-22T08:09:28;100586.98;;;11.35;66.10
84617;BME280;74846;51.126;16.944;2024-03-22T08:11:56;100579.32;;;11.56;65.57
84617;BME280;74846;51.126;16.944;2024-03-22T08:14:24;100574.93;;;11.77;65.08
84617;BME280;74846;51.126;16.944;2024-03-22T08:16:51;100571.27;;;11.95;64.87
84617;BME280;74846;51.126;16.944;2024-03-22T08:19:19;100564.52;;;12.10;62.37
84617;BME280;74846;51.126;16.944;2024-03-22T08:21:47;100561.27;;;12.08;62.43
84617;BME280;74846;51.126;16.944;2024-03-22T08:24:14;100560.77;;;12.14;62.63
84617;BME280;74846;51.126;16.944;2024-03-22T08:26:42;100558.98;;;12.21;62.35
84617;BME280;74846;51.126;16.944;2024-03-22T08:29:13;100555.41;;;12.27;61.36
84617;BME280;74846;51.126;16.944;2024-03-22T08:31:42;100548.39;;;12.35;61.16
84617;BME280;74846;51.126;16.944;2024-03-22T08:34:10;100543.36;;;12.40;60.90
84617;BME280;74846;51.126;16.944;2024-03-22T08:36:38;100543.21;;;12.57;61.11
84617;BME280;74846;51.126;16.944;2024-03-22T08:39:06;100542.21;;;12.81;58.58
84617;BME280;74846;51.126;16.944;2024-03-22T08:41:37;100541.54;;;12.80;58.84
84617;BME280;74846;51.126;16.944;2024-03-22T08:44:05;100539.09;;;12.83;59.64
84617;BME280;74846;51.126;16.944;2024-03-22T08:46:33;100531.71;;;13.04;59.43
84617;BME280;74846;51.126;16.944;2024-03-22T08:49:01;100527.40;;;13.28;59.56
84617;BME280;74846;51.126;16.944;2024-03-22T08:51:28;100520.19;;;13.54;58.33
84617;BME280;74846;51.126;16.944;2024-03-22T08:53:58;100522.93;;;13.66;57.76
84617;BME280;74846;51.126;16.944;2024-03-22T08:56:26;100516.16;;;13.72;55.23
84617;BME280;74846;51.126;16.944;2024-03-22T08:58:54;100518.40;;;13.47;57.10
84617;BME280;74846;51.126;16.944;2024-03-22T09:01:22;100509.21;;;13.60;55.65
84617;BME280;74846;51.126;16.944;2024-03-22T09:03:50;100508.50;;;13.49;55.20
84617;BME280;74846;51.126;16.944;2024-03-22T09:06:18;100502.48;;;13.36;55.45
84617;BME280;74846;51.126;16.944;2024-03-22T09:08:47;100500.62;;;13.27;56.25
84617;BME280;74846;51.126;16.944;2024-03-22T09:11:15;100497.48;;;13.37;55.38
84617;BME280;74846;51.126;16.944;2024-03-22T09:13:42;100502.29;;;13.31;55.72
84617;BME280;74846;51.126;16.944;2024-03-22T09:16:10;100499.39;;;13.35;56.25
84617;BME280;74846;51.126;16.944;2024-03-22T09:18:38;100496.98;;;13.52;54.29
84617;BME280;74846;51.126;16.944;2024-03-22T09:21:05;100498.90;;;13.42;55.04
84617;BME280;74846;51.126;16.944;2024-03-22T09:23:36;100489.77;;;13.39;55.58
84617;BME280;74846;51.126;16.944;2024-03-22T09:26:04;100494.87;;;13.47;55.88
84617;BME280;74846;51.126;16.944;2024-03-22T09:28:33;100494.11;;;13.66;55.18
84617;BME280;74846;51.126;16.944;2024-03-22T09:31:05;100493.05;;;13.66;55.05
84617;BME280;74846;51.126;16.944;2024-03-22T09:33:33;100490.95;;;13.74;53.88
84617;BME280;74846;51.126;16.944;2024-03-22T09:36:04;100497.91;;;13.62;53.26
84617;BME280;74846;51.126;16.944;2024-03-22T09:38:33;100498.23;;;13.34;53.96
84617;BME280;74846;51.126;16.944;2024-03-22T09:41:01;100495.13;;;13.38;53.63
84617;BME280;74846;51.126;16.944;2024-03-22T09:43:30;100496.50;;;13.25;53.09
84617;BME280;74846;51.126;16.944;2024-03-22T09:45:58;100489.33;;;13.05;53.54
84617;BME280;74846;51.126;16.944;2024-03-22T09:48:26;100486.89;;;12.93;54.23
84617;BME280;74846;51.126;16.944;2024-03-22T09:50:54;100484.83;;;12.98;53.52
84617;BME280;74846;51.126;16.944;2024-03-22T09:53:22;100483.25;;;12.89;53.43
84617;BME280;74846;51.126;16.944;2024-03-22T09:55:50;100485.39;;;12.70;54.26
84617;BME280;74846;51.126;16.944;2024-03-22T09:58:19;100485.03;;;12.70;54.71
84617;BME280;74846;51.126;16.944;2024-03-22T10:00:47;100480.23;;;12.78;54.20
84617;BME280;74846;51.126;16.944;2024-03-22T10:03:14;100479.50;;;12.82;53.83
84617;BME280;74846;51.126;16.944;2024-03-22T10:05:43;100480.02;;;12.79;54.30
84617;BME280;74846;51.126;16.944;2024-03-22T10:08:13;100484.76;;;12.82;54.61
84617;BME280;74846;51.126;16.944;2024-03-22T10:10:41;100477.63;;;13.00;54.47
84617;BME280;74846;51.126;16.944;2024-03-22T10:13:09;100470.75;;;13.05;54.64
84617;BME280;74846;51.126;16.944;2024-03-22T10:15:37;100468.39;;;13.00;54.80
84617;BME280;74846;51.126;16.944;2024-03-22T10:18:05;100468.04;;;13.07;54.65
84617;BME280;74846;51.126;16.944;2024-03-22T10:20:32;100462.20;;;13.23;54.04
84617;BME280;74846;51.126;16.944;2024-03-22T10:23:00;100457.42;;;13.37;54.29
84617;BME280;74846;51.126;16.944;2024-03-22T10:25:29;100449.21;;;13.59;53.78
84617;BME280;74846;51.126;16.944;2024-03-22T10:27:57;100443.78;;;13.76;52.75
84617;BME280;74846;51.126;16.944;2024-03-22T10:30:27;100439.32;;;13.82;53.48
84617;BME280;74846;51.126;16.944;2024-03-22T10:32:55;100435.55;;;13.98;52.44
84617;BME280;74846;51.126;16.944;2024-03-22T10:35:23;100435.34;;;14.01;53.64
84617;BME280;74846;51.126;16.944;2024-03-22T10:37:52;100430.13;;;14.15;53.05
84617;BME280;74846;51.126;16.944;2024-03-22T10:40:22;100423.95;;;14.35;52.06
84617;BME280;74846;51.126;16.944;2024-03-22T10:42:50;100424.84;;;14.33;52.91
84617;BME280;74846;51.126;16.944;2024-03-22T10:45:18;100426.08;;;14.58;51.95
84617;BME280;74846;51.126;16.944;2024-03-22T10:47:52;100418.18;;;14.76;50.34
84617;BME280;74846;51.126;16.944;2024-03-22T10:50:23;100418.73;;;14.56;49.11
84617;BME280;74846;51.126;16.944;2024-03-22T10:52:59;100421.50;;;14.30;49.52
84617;BME280;74846;51.126;16.944;2024-03-22T10:55:34;100417.05;;;14.07;50.70
84617;BME280;74846;51.126;16.944;2024-03-22T10:58:03;100419.20;;;14.22;50.67
84617;BME280;74846;51.126;16.944;2024-03-22T11:00:34;100419.23;;;14.44;50.13
84617;BME280;74846;51.126;16.944;2024-03-22T11:03:02;100413.36;;;14.57;49.16
84617;BME280;74846;51.126;16.944;2024-03-22T11:05:31;100408.23;;;14.57;48.81
84617;BME280;74846;51.126;16.944;2024-03-22T11:08:03;100401.64;;;14.57;49.09
84617;BME280;74846;51.126;16.944;2024-03-22T11:10:35;100394.56;;;14.62;49.04
84617;BME280;74846;51.126;16.944;2024-03-22T11:13:04;100387.81;;;14.75;49.17
84617;BME280;74846;51.126;16.944;2024-03-22T11:15:33;100380.77;;;14.98;49.10
84617;BME280;74846;51.126;16.944;2024-03-22T11:18:01;100374.13;;;15.29;48.33
84617;BME280;74846;51.126;16.944;2024-03-22T11:20:29;100367.66;;;15.50;47.97
84617;BME280;74846;51.126;16.944;2024-03-22T11:22:58;100359.81;;;15.83;46.27
84617;BME280;74846;51.126;16.944;2024-03-22T11:25:25;100354.55;;;15.86;46.11
84617;BME280;74846;51.126;16.944;2024-03-22T11:27:54;100350.92;;;15.81;46.22
84617;BME280;74846;51.126;16.944;2024-03-22T11:30:24;100347.25;;;15.80;46.51
84617;BME280;74846;51.126;16.944;2024-03-22T11:32:52;100343.42;;;15.86;45.21
84617;BME280;74846;51.126;16.944;2024-03-22T11:35:20;100340.83;;;15.65;46.26
84617;BME280;74846;51.126;16.944;2024-03-22T11:37:48;100336.45;;;15.82;45.65
84617;BME280;74846;51.126;16.944;2024-03-22T11:40:17;100333.69;;;15.79;44.31
84617;BME280;74846;51.126;16.944;2024-03-22T11:42:48;100332.84;;;15.49;45.89
84617;BME280;74846;51.126;16.944;2024-03-22T11:45:19;100324.63;;;15.52;46.48
84617;BME280;74846;51.126;16.944;2024-03-22T11:47:47;100321.69;;;15.67;45.58
84617;BME280;74846;51.126;16.944;2024-03-22T11:50:15;100314.50;;;15.66;45.02
84617;BME280;74846;51.126;16.944;2024-03-22T11:52:43;100305.90;;;15.55;45.11
84617;BME280;74846;51.126;16.944;2024-03-22T11:55:11;100305.38;;;15.58;44.52
84617;BME280;74846;51.126;16.944;2024-03-22T11:57:39;100297.95;;;15.39;44.86
84617;BME280;74846;51.126;16.944;2024-03-22T12:00:07;100293.68;;;15.21;46.26
84617;BME280;74846;51.126;16.944;2024-03-22T12:02:57;100285.93;;;15.41;45.60
84617;BME280;74846;51.126;16.944;2024-03-22T12:05:25;100284.58;;;15.42;45.46
84617;BME280;74846;51.126;16.944;2024-03-22T12:07:53;100277.83;;;15.40;45.34
84617;BME280;74846;51.126;16.944;2024-03-22T12:10:21;100281.66;;;15.43;45.31
84617;BME280;74846;51.126;16.944;2024-03-22T12:12:49;100278.70;;;15.52;45.29
84617;BME280;74846;51.126;16.944;2024-03-22T12:15:17;100274.48;;;15.56;45.17
84617;BME280;74846;51.126;16.944;2024-03-22T12:17:45;100272.08;;;15.67;45.27
84617;BME280;74846;51.126;16.944;2024-03-22T12:20:12;100269.41;;;15.80;44.47
84617;BME280;74846;51.126;16.944;2024-03-22T12:22:42;100267.59;;;15.80;44.25
84617;BME280;74846;51.126;16.944;2024-03-22T12:25:10;100264.36;;;15.85;44.19
84617;BME280;74846;51.126;16.944;2024-03-22T12:27:39;100260.59;;;15.84;44.29
84617;BME280;74846;51.126;16.944;2024-03-22T12:30:06;100255.81;;;15.94;43.84
84617;BME280;74846;51.126;16.944;2024-03-22T12:32:35;100251.16;;;15.93;43.85
84617;BME280;74846;51.126;16.944;2024-03-22T12:35:03;100246.91;;;15.99;43.22
84617;BME280;74846;51.126;16.944;2024-03-22T12:37:31;100242.45;;;15.95;43.25
84617;BME280;74846;51.126;16.944;2024-03-22T12:39:59;100242.05;;;15.78;43.23
84617;BME280;74846;51.126;16.944;2024-03-22T12:42:27;100237.21;;;15.66;43.42
84617;BME280;74846;51.126;16.944;2024-03-22T12:44:54;100233.17;;;15.52;43.86
84617;BME280;74846;51.126;16.944;2024-03-22T12:47:22;100228.52;;;15.48;43.97
84617;BME280;74846;51.126;16.944;2024-03-22T12:49:50;100217.91;;;15.43;44.02